La rose des vents
Donnes mto: Semaine 25/08/08 - 31/08/08 (S 35)
Date Horaire Temp. E. Hum. E. P.atmo. Pluie Vent 1mn Direction Ensoleilleme Ev.Tr. Solaire P. de rose Temp au vent Rafales
25/08/2008 00:00 19,7 C 60 % 1011,6 hPa 0,0 l/m 1,6 km/h (1 Bft) N-NO 0,00 h 0,051 mm 0 W/m 11,7 C 19,7 C 2,8 km/h (1 Bft)
25/08/2008 01:00 19,1 C 61 % 1011,9 hPa 0,0 l/m 0,6 km/h (0 Bft) N-NO 0,00 h 0,051 mm 0 W/m 11,5 C 19,1 C 1,7 km/h (1 Bft)
25/08/2008 02:00 18,9 C 64 % 1011,9 hPa 0,0 l/m 2,4 km/h (1 Bft) N-NO 0,00 h 0,051 mm 0 W/m 12,0 C 18,9 C 4,3 km/h (1 Bft)
25/08/2008 03:00 18,8 C 67 % 1011,7 hPa 0,0 l/m 2,2 km/h (1 Bft) NO 0,00 h 0,051 mm 0 W/m 12,5 C 18,8 C 3,9 km/h (1 Bft)
25/08/2008 04:00 18,8 C 68 % 1011,5 hPa 0,0 l/m 2,7 km/h (1 Bft) NO 0,00 h 0,051 mm 0 W/m 12,8 C 18,8 C 4,3 km/h (1 Bft)
25/08/2008 05:00 18,4 C 72 % 1011,5 hPa 0,0 l/m 2,3 km/h (1 Bft) O-NO 0,00 h 0,051 mm 0 W/m 13,3 C 18,4 C 3,5 km/h (1 Bft)
25/08/2008 06:00 17,6 C 74 % 1012,0 hPa 0,0 l/m 3,7 km/h (1 Bft) NO 0,00 h 0,025 mm 7 W/m 12,9 C 17,6 C 5,4 km/h (1 Bft)
25/08/2008 07:00 18,0 C 76 % 1012,5 hPa 0,0 l/m 5,2 km/h (1 Bft) O-NO 0,03 h 0,025 mm 47 W/m 13,6 C 18,0 C 7,3 km/h (2 Bft)
25/08/2008 08:00 20,5 C 64 % 1012,9 hPa 0,0 l/m 1,5 km/h (1 Bft) O-NO 0,33 h 0,051 mm 151 W/m 13,5 C 20,5 C 2,5 km/h (1 Bft)
25/08/2008 09:00 22,3 C 63 % 1013,3 hPa 0,0 l/m 3,9 km/h (1 Bft) S 0,43 h 0,102 mm 273 W/m 14,8 C 22,3 C 6,0 km/h (2 Bft)
25/08/2008 10:00 24,9 C 53 % 1013,6 hPa 0,0 l/m 3,6 km/h (1 Bft) E 0,98 h 0,203 mm 541 W/m 14,5 C 24,9 C 6,7 km/h (2 Bft)
25/08/2008 11:00 26,3 C 48 % 1013,6 hPa 0,0 l/m 8,6 km/h (2 Bft) S 1,00 h 0,381 mm 679 W/m 14,2 C 26,3 C 13,3 km/h (3 Bft)
25/08/2008 12:00 27,5 C 43 % 1013,6 hPa 0,0 l/m 8,7 km/h (2 Bft) S 1,00 h 0,508 mm 763 W/m 13,7 C 27,5 C 13,7 km/h (3 Bft)
25/08/2008 13:00 27,5 C 42 % 1013,6 hPa 0,0 l/m 10,7 km/h (2 Bft) S 1,00 h 0,584 mm 775 W/m 13,6 C 27,5 C 16,4 km/h (3 Bft)
25/08/2008 14:00 27,3 C 43 % 1013,6 hPa 0,0 l/m 9,8 km/h (2 Bft) S 0,82 h 0,610 mm 702 W/m 13,6 C 27,3 C 15,0 km/h (3 Bft)
25/08/2008 15:00 27,6 C 42 % 1013,4 hPa 0,0 l/m 9,1 km/h (2 Bft) S 0,98 h 0,559 mm 684 W/m 13,7 C 27,6 C 14,2 km/h (3 Bft)
25/08/2008 16:00 27,4 C 44 % 1013,4 hPa 0,0 l/m 9,7 km/h (2 Bft) S-SE 1,00 h 0,533 mm 638 W/m 13,9 C 27,4 C 15,1 km/h (3 Bft)
25/08/2008 17:00 26,7 C 48 % 1013,6 hPa 0,0 l/m 8,1 km/h (2 Bft) E 0,92 h 0,508 mm 398 W/m 14,6 C 26,7 C 13,0 km/h (3 Bft)
25/08/2008 18:00 25,3 C 53 % 1014,1 hPa 0,0 l/m 4,5 km/h (1 Bft) E-NE 0,73 h 0,330 mm 216 W/m 15,0 C 25,3 C 7,0 km/h (2 Bft)
25/08/2008 19:00 24,1 C 58 % 1014,1 hPa 0,0 l/m 1,5 km/h (1 Bft) E 0,08 h 0,178 mm 55 W/m 15,2 C 24,1 C 3,5 km/h (1 Bft)
25/08/2008 20:00 22,7 C 63 % 1014,2 hPa 0,0 l/m 0,6 km/h (0 Bft) E 0,00 h 0,051 mm 7 W/m 15,2 C 22,7 C 1,6 km/h (1 Bft)
25/08/2008 21:00 21,6 C 68 % 1014,7 hPa 0,0 l/m 1,0 km/h (0 Bft) E 0,00 h 0,025 mm 0 W/m 15,4 C 21,6 C 1,5 km/h (1 Bft)
25/08/2008 22:00 20,9 C 71 % 1015,0 hPa 0,0 l/m 2,4 km/h (1 Bft) E 0,00 h 0,051 mm 0 W/m 15,4 C 20,9 C 3,9 km/h (1 Bft)
25/08/2008 23:00 20,0 C 72 % 1015,1 hPa 0,0 l/m 1,3 km/h (1 Bft) O-NO 0,00 h 0,051 mm 0 W/m 14,8 C 20,0 C 2,5 km/h (1 Bft)
26/08/2008 00:00 19,6 C 75 % 1015,2 hPa 0,0 l/m 3,9 km/h (1 Bft) O 0,00 h 0,025 mm 0 W/m 15,0 C 19,6 C 5,4 km/h (1 Bft)
26/08/2008 01:00 19,8 C 70 % 1015,2 hPa 0,0 l/m 5,2 km/h (1 Bft) O-NO 0,00 h 0,051 mm 0 W/m 14,2 C 19,8 C 8,4 km/h (2 Bft)
26/08/2008 02:00 19,8 C 66 % 1015,3 hPa 0,0 l/m 4,5 km/h (1 Bft) N-NO 0,00 h 0,051 mm 0 W/m 13,2 C 19,8 C 6,7 km/h (2 Bft)
26/08/2008 03:00 19,7 C 63 % 1015,5 hPa 0,0 l/m 4,0 km/h (1 Bft) NO 0,00 h 0,051 mm 0 W/m 12,3 C 19,7 C 5,8 km/h (2 Bft)
26/08/2008 04:00 19,6 C 61 % 1015,7 hPa 0,0 l/m 4,2 km/h (1 Bft) NO 0,00 h 0,051 mm 0 W/m 11,9 C 19,6 C 6,1 km/h (2 Bft)
26/08/2008 05:00 19,6 C 60 % 1015,7 hPa 0,0 l/m 3,1 km/h (1 Bft) NO 0,00 h 0,051 mm 0 W/m 11,6 C 19,6 C 5,0 km/h (1 Bft)
26/08/2008 06:00 19,5 C 60 % 1015,8 hPa 0,0 l/m 3,9 km/h (1 Bft) NO 0,02 h 0,051 mm 7 W/m 11,6 C 19,5 C 5,7 km/h (1 Bft)
26/08/2008 07:00 20,1 C 60 % 1016,4 hPa 0,0 l/m 3,6 km/h (1 Bft) O-NO 0,02 h 0,025 mm 29 W/m 12,2 C 20,1 C 5,4 km/h (1 Bft)
26/08/2008 08:00 21,8 C 58 % 1016,7 hPa 0,0 l/m 1,9 km/h (1 Bft) N 0,28 h 0,051 mm 129 W/m 13,1 C 21,8 C 3,9 km/h (1 Bft)
26/08/2008 09:00 25,4 C 48 % 1017,0 hPa 0,0 l/m 2,6 km/h (1 Bft) NE 1,00 h 0,102 mm 389 W/m 13,6 C 25,4 C 4,6 km/h (1 Bft)
26/08/2008 10:00 27,6 C 42 % 1017,4 hPa 0,0 l/m 4,7 km/h (1 Bft) E-SE 1,00 h 0,279 mm 547 W/m 13,6 C 27,6 C 8,1 km/h (2 Bft)
26/08/2008 11:00 29,0 C 39 % 1017,7 hPa 0,0 l/m 8,4 km/h (2 Bft) E 1,00 h 0,406 mm 673 W/m 13,5 C 29,0 C 13,2 km/h (3 Bft)
26/08/2008 12:00 29,2 C 41 % 1017,8 hPa 0,0 l/m 9,9 km/h (2 Bft) E 1,00 h 0,533 mm 754 W/m 14,7 C 29,2 C 15,7 km/h (3 Bft)
26/08/2008 13:00 28,7 C 44 % 1018,1 hPa 0,0 l/m 10,4 km/h (2 Bft) E 1,00 h 0,610 mm 782 W/m 15,2 C 28,7 C 16,1 km/h (3 Bft)
26/08/2008 14:00 29,2 C 40 % 1018,2 hPa 0,0 l/m 8,7 km/h (2 Bft) E 1,00 h 0,610 mm 755 W/m 14,2 C 29,2 C 14,2 km/h (3 Bft)
26/08/2008 15:00 28,8 C 42 % 1018,1 hPa 0,0 l/m 7,1 km/h (2 Bft) E 1,00 h 0,584 mm 680 W/m 14,4 C 28,8 C 11,8 km/h (2 Bft)
26/08/2008 16:00 28,6 C 42 % 1017,8 hPa 0,0 l/m 6,1 km/h (2 Bft) E 1,00 h 0,533 mm 555 W/m 14,3 C 28,6 C 10,1 km/h (2 Bft)
26/08/2008 17:00 28,5 C 41 % 1017,4 hPa 0,0 l/m 4,4 km/h (1 Bft) E 1,00 h 0,432 mm 400 W/m 13,8 C 28,5 C 7,2 km/h (2 Bft)
26/08/2008 18:00 28,0 C 41 % 1017,3 hPa 0,0 l/m 1,2 km/h (1 Bft) E-SE 0,88 h 0,305 mm 220 W/m 13,5 C 28,0 C 3,1 km/h (1 Bft)
26/08/2008 19:00 26,4 C 46 % 1017,3 hPa 0,0 l/m 0,0 km/h (0 Bft) N 0,08 h 0,178 mm 46 W/m 13,9 C 26,4 C 0,1 km/h (0 Bft)
26/08/2008 20:00 24,3 C 51 % 1017,3 hPa 0,0 l/m 1,5 km/h (1 Bft) N-NO 0,00 h 0,051 mm 7 W/m 13,4 C 24,3 C 2,5 km/h (1 Bft)
26/08/2008 21:00 23,0 C 53 % 1017,4 hPa 0,0 l/m 2,4 km/h (1 Bft) NO 0,00 h 0,025 mm 0 W/m 12,9 C 23,0 C 4,5 km/h (1 Bft)
26/08/2008 22:00 23,0 C 53 % 1017,6 hPa 0,0 l/m 5,7 km/h (1 Bft) O-NO 0,00 h 0,051 mm 0 W/m 12,8 C 23,0 C 8,4 km/h (2 Bft)
26/08/2008 23:00 22,3 C 55 % 1017,6 hPa 0,0 l/m 5,0 km/h (1 Bft) O-NO 0,00 h 0,076 mm 0 W/m 12,9 C 22,3 C 7,6 km/h (2 Bft)
27/08/2008 00:00 22,2 C 56 % 1017,7 hPa 0,0 l/m 5,7 km/h (1 Bft) O-NO 0,00 h 0,076 mm 0 W/m 13,0 C 22,2 C 8,2 km/h (2 Bft)
27/08/2008 01:00 22,7 C 55 % 1017,5 hPa 0,0 l/m 5,2 km/h (1 Bft) O-NO 0,00 h 0,076 mm 0 W/m 13,0 C 22,7 C 8,1 km/h (2 Bft)
27/08/2008 02:00 21,8 C 58 % 1017,2 hPa 0,0 l/m 1,8 km/h (1 Bft) NO 0,00 h 0,076 mm 0 W/m 13,1 C 21,8 C 3,4 km/h (1 Bft)
27/08/2008 03:00 21,5 C 58 % 1016,9 hPa 0,0 l/m 0,6 km/h (0 Bft) NO 0,00 h 0,051 mm 0 W/m 13,0 C 21,5 C 1,1 km/h (0 Bft)
27/08/2008 04:00 21,5 C 59 % 1016,6 hPa 0,0 l/m 3,3 km/h (1 Bft) NO 0,00 h 0,051 mm 0 W/m 13,2 C 21,5 C 4,5 km/h (1 Bft)
27/08/2008 05:00 21,0 C 61 % 1016,6 hPa 0,0 l/m 2,9 km/h (1 Bft) O-NO 0,00 h 0,051 mm 0 W/m 13,1 C 21,0 C 4,4 km/h (1 Bft)
27/08/2008 06:00 20,5 C 62 % 1016,7 hPa 0,0 l/m 6,6 km/h (2 Bft) NO 0,00 h 0,051 mm 6 W/m 12,9 C 20,5 C 10,0 km/h (2 Bft)
27/08/2008 07:00 21,0 C 60 % 1017,1 hPa 0,0 l/m 4,1 km/h (1 Bft) NO 0,00 h 0,051 mm 35 W/m 12,9 C 21,0 C 6,4 km/h (2 Bft)
27/08/2008 08:00 23,1 C 54 % 1017,3 hPa 0,0 l/m 0,6 km/h (0 Bft) NO 0,38 h 0,051 mm 159 W/m 13,1 C 23,1 C 2,1 km/h (1 Bft)
27/08/2008 09:00 26,6 C 45 % 1017,6 hPa 0,0 l/m 2,5 km/h (1 Bft) E 1,00 h 0,102 mm 393 W/m 13,6 C 26,6 C 4,5 km/h (1 Bft)
27/08/2008 10:00 28,4 C 42 % 1017,7 hPa 0,0 l/m 5,8 km/h (2 Bft) S 1,00 h 0,279 mm 551 W/m 14,3 C 28,4 C 9,5 km/h (2 Bft)
27/08/2008 11:00 29,7 C 40 % 1017,7 hPa 0,0 l/m 9,5 km/h (2 Bft) S 1,00 h 0,432 mm 672 W/m 14,5 C 29,7 C 14,9 km/h (3 Bft)
27/08/2008 12:00 30,1 C 33 % 1017,4 hPa 0,0 l/m 12,2 km/h (2 Bft) S 1,00 h 0,559 mm 749 W/m 12,0 C 30,1 C 18,4 km/h (3 Bft)
27/08/2008 13:00 30,1 C 35 % 1017,0 hPa 0,0 l/m 13,5 km/h (3 Bft) S 1,00 h 0,660 mm 776 W/m 12,8 C 30,1 C 20,5 km/h (4 Bft)
27/08/2008 14:00 30,0 C 36 % 1016,7 hPa 0,0 l/m 13,1 km/h (3 Bft) S 1,00 h 0,686 mm 751 W/m 13,1 C 30,0 C 19,2 km/h (3 Bft)
27/08/2008 15:00 29,9 C 37 % 1016,5 hPa 0,0 l/m 9,1 km/h (2 Bft) S 1,00 h 0,660 mm 698 W/m 13,5 C 29,9 C 14,6 km/h (3 Bft)
27/08/2008 16:00 29,4 C 40 % 1016,3 hPa 0,0 l/m 7,7 km/h (2 Bft) E 0,87 h 0,559 mm 536 W/m 14,2 C 29,4 C 13,1 km/h (3 Bft)
27/08/2008 17:00 28,9 C 39 % 1016,0 hPa 0,0 l/m 4,9 km/h (1 Bft) S 1,00 h 0,432 mm 401 W/m 13,4 C 28,9 C 8,9 km/h (2 Bft)
27/08/2008 18:00 27,2 C 39 % 1015,6 hPa 0,0 l/m 2,8 km/h (1 Bft) E 0,38 h 0,330 mm 148 W/m 12,0 C 27,2 C 5,6 km/h (1 Bft)
27/08/2008 19:00 25,5 C 46 % 1015,5 hPa 0,0 l/m 0,5 km/h (0 Bft) E 0,00 h 0,127 mm 43 W/m 12,9 C 25,5 C 1,4 km/h (1 Bft)
27/08/2008 20:00 23,8 C 53 % 1015,6 hPa 0,0 l/m 0,3 km/h (0 Bft) E 0,02 h 0,051 mm 8 W/m 13,6 C 23,8 C 0,7 km/h (0 Bft)
27/08/2008 21:00 22,7 C 58 % 1015,8 hPa 0,0 l/m 0,3 km/h (0 Bft) E 0,00 h 0,025 mm 0 W/m 14,1 C 22,7 C 0,8 km/h (0 Bft)
27/08/2008 22:00 22,5 C 54 % 1015,8 hPa 0,0 l/m 2,4 km/h (1 Bft) NO 0,00 h 0,051 mm 0 W/m 12,7 C 22,5 C 4,1 km/h (1 Bft)
27/08/2008 23:00 22,0 C 54 % 1015,7 hPa 0,0 l/m 2,7 km/h (1 Bft) NO 0,00 h 0,051 mm 0 W/m 12,4 C 22,0 C 3,9 km/h (1 Bft)
28/08/2008 00:00 21,8 C 54 % 1015,5 hPa 0,0 l/m 3,6 km/h (1 Bft) NO 0,00 h 0,051 mm 0 W/m 12,2 C 21,8 C 5,5 km/h (1 Bft)
28/08/2008 01:00 21,5 C 55 % 1015,4 hPa 0,0 l/m 2,9 km/h (1 Bft) NO 0,00 h 0,076 mm 0 W/m 12,1 C 21,5 C 5,8 km/h (2 Bft)
28/08/2008 02:00 22,1 C 54 % 1015,0 hPa 0,0 l/m 3,3 km/h (1 Bft) NO 0,00 h 0,051 mm 0 W/m 12,3 C 22,1 C 5,7 km/h (1 Bft)
28/08/2008 03:00 22,0 C 55 % 1014,8 hPa 0,0 l/m 2,2 km/h (1 Bft) O-SO 0,00 h 0,076 mm 0 W/m 12,5 C 22,0 C 3,6 km/h (1 Bft)
28/08/2008 04:00 22,0 C 55 % 1014,4 hPa 0,0 l/m 2,4 km/h (1 Bft) SO 0,00 h 0,051 mm 0 W/m 12,4 C 22,0 C 3,8 km/h (1 Bft)
28/08/2008 05:00 21,2 C 57 % 1014,1 hPa 0,0 l/m 2,9 km/h (1 Bft) NO 0,00 h 0,051 mm 0 W/m 12,5 C 21,2 C 4,1 km/h (1 Bft)
28/08/2008 06:00 20,5 C 60 % 1014,5 hPa 0,0 l/m 5,8 km/h (2 Bft) S-SO 0,00 h 0,051 mm 6 W/m 12,6 C 20,5 C 7,2 km/h (2 Bft)
28/08/2008 07:00 20,4 C 61 % 1015,0 hPa 0,0 l/m 1,6 km/h (1 Bft) O 0,03 h 0,051 mm 26 W/m 12,6 C 20,4 C 3,4 km/h (1 Bft)
28/08/2008 08:00 22,1 C 57 % 1015,3 hPa 0,0 l/m 0,1 km/h (0 Bft) E-NE 0,35 h 0,025 mm 133 W/m 13,1 C 22,1 C 0,8 km/h (0 Bft)
28/08/2008 09:00 26,0 C 46 % 1015,3 hPa 0,0 l/m 1,3 km/h (1 Bft) E 1,00 h 0,102 mm 377 W/m 13,4 C 26,0 C 2,8 km/h (1 Bft)
28/08/2008 10:00 28,9 C 37 % 1015,1 hPa 0,0 l/m 5,4 km/h (1 Bft) NE 1,00 h 0,254 mm 532 W/m 12,7 C 28,9 C 8,6 km/h (2 Bft)
28/08/2008 11:00 30,3 C 33 % 1015,1 hPa 0,0 l/m 9,0 km/h (2 Bft) E 1,00 h 0,432 mm 658 W/m 12,0 C 30,3 C 14,4 km/h (3 Bft)
28/08/2008 12:00 29,8 C 36 % 1015,1 hPa 0,0 l/m 10,3 km/h (2 Bft) E 1,00 h 0,559 mm 740 W/m 12,9 C 29,8 C 15,4 km/h (3 Bft)
28/08/2008 13:00 30,2 C 36 % 1014,9 hPa 0,0 l/m 11,5 km/h (2 Bft) E 1,00 h 0,610 mm 772 W/m 13,4 C 30,2 C 16,4 km/h (3 Bft)
28/08/2008 14:00 30,5 C 33 % 1014,8 hPa 0,0 l/m 10,1 km/h (2 Bft) E 1,00 h 0,660 mm 749 W/m 12,1 C 30,5 C 15,8 km/h (3 Bft)
28/08/2008 15:00 30,3 C 36 % 1014,4 hPa 0,0 l/m 10,7 km/h (2 Bft) E 1,00 h 0,635 mm 669 W/m 13,3 C 30,3 C 16,8 km/h (3 Bft)
28/08/2008 16:00 29,6 C 37 % 1014,1 hPa 0,0 l/m 8,4 km/h (2 Bft) E 0,98 h 0,584 mm 542 W/m 13,3 C 29,6 C 12,6 km/h (3 Bft)
28/08/2008 17:00 28,3 C 42 % 1013,7 hPa 0,0 l/m 5,8 km/h (2 Bft) E 0,52 h 0,457 mm 280 W/m 14,0 C 28,3 C 8,5 km/h (2 Bft)
28/08/2008 18:00 27,7 C 43 % 1013,6 hPa 0,0 l/m 1,8 km/h (1 Bft) E 0,88 h 0,254 mm 231 W/m 14,1 C 27,7 C 3,7 km/h (1 Bft)
28/08/2008 19:00 27,1 C 43 % 1013,6 hPa 0,0 l/m 0,5 km/h (0 Bft) E-NE 1,00 h 0,178 mm 98 W/m 13,5 C 27,1 C 1,7 km/h (1 Bft)
28/08/2008 20:00 25,1 C 54 % 1013,4 hPa 0,0 l/m 0,5 km/h (0 Bft) E-NE 0,08 h 0,076 mm 15 W/m 15,0 C 25,1 C 1,2 km/h (1 Bft)
28/08/2008 21:00 23,5 C 61 % 1013,7 hPa 0,0 l/m 0,3 km/h (0 Bft) E-NE 0,00 h 0,025 mm 0 W/m 15,4 C 23,5 C 0,9 km/h (0 Bft)
28/08/2008 22:00 22,7 C 61 % 1013,7 hPa 0,0 l/m 0,1 km/h (0 Bft) E-NE 0,00 h 0,051 mm 0 W/m 14,8 C 22,7 C 0,4 km/h (0 Bft)
28/08/2008 23:00 22,2 C 59 % 1013,9 hPa 0,0 l/m 0,6 km/h (0 Bft) E-NE 0,00 h 0,051 mm 0 W/m 13,9 C 22,2 C 1,1 km/h (1 Bft)
29/08/2008 00:00 22,4 C 58 % 1013,9 hPa 0,0 l/m 4,9 km/h (1 Bft) O 0,00 h 0,051 mm 0 W/m 13,7 C 22,4 C 6,3 km/h (2 Bft)
29/08/2008 01:00 22,0 C 59 % 1013,9 hPa 0,0 l/m 3,9 km/h (1 Bft) N-NO 0,00 h 0,076 mm 0 W/m 13,5 C 22,0 C 5,4 km/h (1 Bft)
29/08/2008 02:00 21,9 C 58 % 1013,8 hPa 0,0 l/m 2,8 km/h (1 Bft) N-NO 0,00 h 0,051 mm 0 W/m 13,4 C 21,9 C 4,8 km/h (1 Bft)
29/08/2008 03:00 21,4 C 60 % 1013,4 hPa 0,0 l/m 2,7 km/h (1 Bft) NO 0,00 h 0,051 mm 0 W/m 13,2 C 21,4 C 4,7 km/h (1 Bft)
29/08/2008 04:00 21,2 C 61 % 1013,3 hPa 0,0 l/m 1,4 km/h (1 Bft) NO 0,00 h 0,051 mm 0 W/m 13,3 C 21,2 C 2,2 km/h (1 Bft)
29/08/2008 05:00 20,8 C 61 % 1013,3 hPa 0,0 l/m 1,4 km/h (1 Bft) O-NO 0,00 h 0,051 mm 0 W/m 13,0 C 20,8 C 2,1 km/h (1 Bft)
29/08/2008 06:00 20,0 C 65 % 1013,4 hPa 0,0 l/m 0,7 km/h (0 Bft) O-NO 0,00 h 0,051 mm 6 W/m 13,1 C 20,0 C 1,2 km/h (1 Bft)
29/08/2008 07:00 20,7 C 63 % 1013,6 hPa 0,0 l/m 2,3 km/h (1 Bft) O-NO 0,03 h 0,025 mm 26 W/m 13,4 C 20,7 C 3,5 km/h (1 Bft)
29/08/2008 08:00 22,2 C 59 % 1014,1 hPa 0,0 l/m 0,7 km/h (0 Bft) NO 0,32 h 0,025 mm 136 W/m 13,9 C 22,2 C 1,9 km/h (1 Bft)
29/08/2008 09:00 25,6 C 50 % 1014,1 hPa 0,0 l/m 2,7 km/h (1 Bft) E 1,00 h 0,102 mm 376 W/m 14,2 C 25,6 C 5,0 km/h (1 Bft)
29/08/2008 10:00 27,4 C 47 % 1014,4 hPa 0,0 l/m 6,0 km/h (2 Bft) E 1,00 h 0,279 mm 528 W/m 15,1 C 27,4 C 9,4 km/h (2 Bft)
29/08/2008 11:00 28,3 C 49 % 1014,4 hPa 0,0 l/m 7,2 km/h (2 Bft) E 1,00 h 0,406 mm 652 W/m 16,5 C 28,3 C 11,0 km/h (2 Bft)
29/08/2008 12:00 29,7 C 41 % 1014,3 hPa 0,0 l/m 8,2 km/h (2 Bft) E 1,00 h 0,483 mm 738 W/m 14,9 C 29,7 C 12,5 km/h (3 Bft)
29/08/2008 13:00 30,2 C 40 % 1014,0 hPa 0,0 l/m 9,3 km/h (2 Bft) E 1,00 h 0,584 mm 768 W/m 15,1 C 30,2 C 14,0 km/h (3 Bft)
29/08/2008 14:00 30,1 C 44 % 1013,8 hPa 0,0 l/m 10,3 km/h (2 Bft) E 1,00 h 0,610 mm 745 W/m 16,3 C 30,1 C 16,0 km/h (3 Bft)
29/08/2008 15:00 29,6 C 44 % 1013,3 hPa 0,0 l/m 10,0 km/h (2 Bft) E 1,00 h 0,610 mm 670 W/m 16,1 C 29,6 C 14,8 km/h (3 Bft)
29/08/2008 16:00 29,5 C 50 % 1012,8 hPa 0,0 l/m 7,2 km/h (2 Bft) E 1,00 h 0,559 mm 552 W/m 17,9 C 29,5 C 11,3 km/h (2 Bft)
29/08/2008 17:00 27,6 C 61 % 1012,7 hPa 0,0 l/m 6,6 km/h (2 Bft) E 1,00 h 0,432 mm 395 W/m 19,4 C 27,6 C 9,9 km/h (2 Bft)
29/08/2008 18:00 26,3 C 70 % 1012,4 hPa 0,0 l/m 3,4 km/h (1 Bft) E-SE 0,95 h 0,305 mm 216 W/m 20,3 C 26,3 C 5,8 km/h (2 Bft)
29/08/2008 19:00 24,7 C 71 % 1012,5 hPa 0,0 l/m 1,4 km/h (1 Bft) E-SE 0,37 h 0,152 mm 55 W/m 19,2 C 24,7 C 3,2 km/h (1 Bft)
29/08/2008 20:00 22,8 C 80 % 1012,6 hPa 0,0 l/m 0,0 km/h (0 Bft) N 0,05 h 0,051 mm 8 W/m 19,2 C 22,8 C 0,2 km/h (0 Bft)
29/08/2008 21:00 21,9 C 85 % 1012,9 hPa 0,0 l/m 0,2 km/h (0 Bft) E-SE 0,00 h 0,000 mm 0 W/m 19,2 C 21,9 C 0,3 km/h (0 Bft)
29/08/2008 22:00 21,4 C 87 % 1013,1 hPa 0,0 l/m 0,1 km/h (0 Bft) E-SE 0,00 h 0,025 mm 0 W/m 19,1 C 21,4 C 0,2 km/h (0 Bft)
29/08/2008 23:00 21,1 C 87 % 1013,3 hPa 0,0 l/m 0,5 km/h (0 Bft) E-SE 0,00 h 0,025 mm 0 W/m 18,9 C 21,1 C 0,8 km/h (0 Bft)
30/08/2008 00:00 20,8 C 88 % 1013,3 hPa 0,0 l/m 0,2 km/h (0 Bft) E-SE 0,00 h 0,025 mm 0 W/m 18,7 C 20,8 C 0,4 km/h (0 Bft)
30/08/2008 01:00 20,6 C 89 % 1013,4 hPa 0,0 l/m 0,0 km/h (0 Bft) N 0,00 h 0,025 mm 0 W/m 18,7 C 20,6 C 0,1 km/h (0 Bft)
30/08/2008 02:00 20,0 C 89 % 1013,3 hPa 0,0 l/m 0,1 km/h (0 Bft) E-SE 0,00 h 0,025 mm 0 W/m 18,2 C 20,0 C 0,4 km/h (0 Bft)
30/08/2008 03:00 20,3 C 90 % 1013,3 hPa 0,0 l/m 0,7 km/h (0 Bft) E-SE 0,00 h 0,025 mm 0 W/m 18,6 C 20,3 C 1,5 km/h (1 Bft)
30/08/2008 04:00 19,8 C 91 % 1013,4 hPa 0,0 l/m 2,1 km/h (1 Bft) E-SE 0,00 h 0,025 mm 0 W/m 18,3 C 19,8 C 4,0 km/h (1 Bft)
30/08/2008 05:00 19,7 C 91 % 1013,4 hPa 0,0 l/m 2,3 km/h (1 Bft) E-SE 0,00 h 0,025 mm 0 W/m 18,2 C 19,7 C 3,7 km/h (1 Bft)
30/08/2008 06:00 19,2 C 91 % 1013,4 hPa 0,0 l/m 4,3 km/h (1 Bft) E-SE 0,00 h 0,025 mm 6 W/m 17,7 C 19,2 C 5,6 km/h (1 Bft)
30/08/2008 07:00 19,3 C 91 % 1013,6 hPa 0,0 l/m 3,7 km/h (1 Bft) E-SE 0,02 h 0,025 mm 26 W/m 17,8 C 19,3 C 5,1 km/h (1 Bft)
30/08/2008 08:00 20,9 C 89 % 1013,6 hPa 0,0 l/m 1,1 km/h (0 Bft) E-SE 0,28 h 0,025 mm 128 W/m 19,0 C 20,9 C 2,5 km/h (1 Bft)
30/08/2008 09:00 23,8 C 75 % 1013,8 hPa 0,0 l/m 3,0 km/h (1 Bft) E-SE 1,00 h 0,076 mm 374 W/m 19,2 C 23,8 C 5,5 km/h (1 Bft)
30/08/2008 10:00 26,1 C 67 % 1014,1 hPa 0,0 l/m 5,8 km/h (2 Bft) S 1,00 h 0,254 mm 532 W/m 19,5 C 26,1 C 9,4 km/h (2 Bft)
30/08/2008 11:00 27,2 C 65 % 1014,1 hPa 0,0 l/m 7,8 km/h (2 Bft) E 1,00 h 0,381 mm 663 W/m 19,9 C 27,2 C 13,0 km/h (3 Bft)
30/08/2008 12:00 27,4 C 63 % 1014,2 hPa 0,0 l/m 12,8 km/h (3 Bft) E 1,00 h 0,483 mm 733 W/m 19,8 C 27,4 C 17,9 km/h (3 Bft)
30/08/2008 13:00 27,5 C 65 % 1014,3 hPa 0,0 l/m 11,4 km/h (2 Bft) E 0,95 h 0,559 mm 748 W/m 20,4 C 27,5 C 16,3 km/h (3 Bft)
30/08/2008 14:00 27,3 C 66 % 1014,3 hPa 0,0 l/m 12,3 km/h (3 Bft) E 0,75 h 0,559 mm 640 W/m 20,4 C 27,3 C 17,6 km/h (3 Bft)
30/08/2008 15:00 27,8 C 63 % 1014,0 hPa 0,0 l/m 8,9 km/h (2 Bft) E 1,00 h 0,457 mm 659 W/m 20,2 C 27,8 C 14,1 km/h (3 Bft)
30/08/2008 16:00 27,9 C 63 % 1013,5 hPa 0,0 l/m 10,1 km/h (2 Bft) E 1,00 h 0,483 mm 536 W/m 20,2 C 27,9 C 15,4 km/h (3 Bft)
30/08/2008 17:00 26,6 C 69 % 1013,5 hPa 0,0 l/m 8,7 km/h (2 Bft) E 1,00 h 0,406 mm 383 W/m 20,4 C 26,6 C 13,0 km/h (3 Bft)
30/08/2008 18:00 25,9 C 72 % 1013,5 hPa 0,0 l/m 5,7 km/h (1 Bft) E 1,00 h 0,305 mm 214 W/m 20,3 C 25,9 C 8,7 km/h (2 Bft)
30/08/2008 19:00 24,6 C 76 % 1013,4 hPa 0,0 l/m 3,1 km/h (1 Bft) E 0,33 h 0,178 mm 54 W/m 20,1 C 24,6 C 5,4 km/h (1 Bft)
30/08/2008 20:00 22,9 C 84 % 1013,4 hPa 0,0 l/m 0,8 km/h (0 Bft) E 0,02 h 0,051 mm 7 W/m 20,0 C 22,9 C 2,3 km/h (1 Bft)
30/08/2008 21:00 22,2 C 88 % 1013,8 hPa 0,0 l/m 0,0 km/h (0 Bft) N 0,00 h 0,000 mm 0 W/m 20,0 C 22,2 C 0,1 km/h (0 Bft)
30/08/2008 22:00 21,4 C 89 % 1013,9 hPa 0,0 l/m 0,0 km/h (0 Bft) N 0,00 h 0,025 mm 0 W/m 19,5 C 21,4 C 0,0 km/h (0 Bft)
30/08/2008 23:00 20,6 C 89 % 1014,0 hPa 0,0 l/m 0,1 km/h (0 Bft) E 0,00 h 0,025 mm 0 W/m 18,8 C 20,6 C 0,6 km/h (0 Bft)
31/08/2008 00:00 20,3 C 90 % 1014,0 hPa 0,0 l/m 1,0 km/h (0 Bft) E 0,00 h 0,025 mm 0 W/m 18,6 C 20,3 C 2,1 km/h (1 Bft)
31/08/2008 01:00 20,0 C 91 % 1014,0 hPa 0,0 l/m 2,0 km/h (1 Bft) N-NO 0,00 h 0,025 mm 0 W/m 18,5 C 20,0 C 3,8 km/h (1 Bft)
31/08/2008 02:00 19,6 C 92 % 1014,0 hPa 0,0 l/m 2,6 km/h (1 Bft) N-NO 0,00 h 0,025 mm 0 W/m 18,2 C 19,6 C 4,4 km/h (1 Bft)
31/08/2008 03:00 19,3 C 92 % 1014,1 hPa 0,0 l/m 2,8 km/h (1 Bft) NO 0,00 h 0,025 mm 0 W/m 18,0 C 19,3 C 4,5 km/h (1 Bft)
31/08/2008 04:00 18,9 C 93 % 1013,7 hPa 0,0 l/m 3,9 km/h (1 Bft) NO 0,00 h 0,025 mm 0 W/m 17,8 C 18,9 C 5,5 km/h (1 Bft)
31/08/2008 05:00 19,1 C 93 % 1013,7 hPa 0,0 l/m 6,1 km/h (2 Bft) O 0,00 h 0,025 mm 0 W/m 17,9 C 19,1 C 7,5 km/h (2 Bft)
31/08/2008 06:00 18,8 C 93 % 1014,2 hPa 0,0 l/m 6,9 km/h (2 Bft) O 0,00 h 0,025 mm 6 W/m 17,6 C 18,8 C 8,5 km/h (2 Bft)
31/08/2008 07:00 18,9 C 91 % 1014,6 hPa 0,0 l/m 4,7 km/h (1 Bft) O 0,05 h 0,025 mm 29 W/m 17,3 C 18,9 C 6,3 km/h (2 Bft)
31/08/2008 08:00 20,6 C 85 % 1014,8 hPa 0,0 l/m 0,3 km/h (0 Bft) O 0,05 h 0,025 mm 107 W/m 17,9 C 20,6 C 1,3 km/h (1 Bft)
31/08/2008 09:00 23,2 C 80 % 1014,8 hPa 0,0 l/m 1,5 km/h (1 Bft) O 0,55 h 0,076 mm 281 W/m 19,6 C 23,2 C 2,9 km/h (1 Bft)
31/08/2008 10:00 25,6 C 69 % 1015,0 hPa 0,0 l/m 3,9 km/h (1 Bft) S-SO 1,00 h 0,178 mm 539 W/m 19,4 C 25,6 C 7,0 km/h (2 Bft)
31/08/2008 11:00 26,8 C 65 % 1015,1 hPa 0,2 l/m 6,2 km/h (2 Bft) S 0,65 h 0,356 mm 537 W/m 19,7 C 26,8 C 9,6 km/h (2 Bft)
31/08/2008 12:00 28,5 C 62 % 1014,9 hPa 0,0 l/m 10,4 km/h (2 Bft) E 1,00 h 0,381 mm 747 W/m 20,5 C 28,5 C 15,7 km/h (3 Bft)
31/08/2008 13:00 27,9 C 65 % 1014,8 hPa 0,0 l/m 12,1 km/h (2 Bft) E 0,95 h 0,559 mm 703 W/m 20,7 C 27,9 C 17,2 km/h (3 Bft)
31/08/2008 14:00 26,5 C 72 % 1014,9 hPa 0,0 l/m 8,6 km/h (2 Bft) E 0,32 h 0,508 mm 462 W/m 21,0 C 26,5 C 12,8 km/h (3 Bft)
31/08/2008 15:00 26,0 C 73 % 1014,8 hPa 0,0 l/m 6,7 km/h (2 Bft) E 0,33 h 0,330 mm 407 W/m 20,7 C 26,0 C 9,9 km/h (2 Bft)
31/08/2008 16:00 27,1 C 66 % 1014,3 hPa 0,0 l/m 6,4 km/h (2 Bft) E 0,95 h 0,305 mm 475 W/m 20,3 C 27,1 C 10,1 km/h (2 Bft)
31/08/2008 17:00 25,9 C 71 % 1013,9 hPa 0,0 l/m 7,0 km/h (2 Bft) E 0,45 h 0,356 mm 270 W/m 20,1 C 25,9 C 10,6 km/h (2 Bft)
31/08/2008 18:00 26,1 C 70 % 1013,6 hPa 0,0 l/m 3,4 km/h (1 Bft) E 1,00 h 0,203 mm 217 W/m 20,2 C 26,1 C 5,8 km/h (2 Bft)
31/08/2008 19:00 24,4 C 77 % 1013,6 hPa 0,0 l/m 0,7 km/h (0 Bft) E 0,23 h 0,152 mm 45 W/m 20,0 C 24,4 C 2,0 km/h (1 Bft)
31/08/2008 20:00 22,6 C 83 % 1013,5 hPa 0,0 l/m 0,3 km/h (0 Bft) E 0,00 h 0,025 mm 6 W/m 19,5 C 22,6 C 0,9 km/h (0 Bft)
31/08/2008 21:00 21,7 C 87 % 1013,8 hPa 0,0 l/m 0,0 km/h (0 Bft) E 0,00 h 0,000 mm 0 W/m 19,3 C 21,7 C 0,1 km/h (0 Bft)
31/08/2008 22:00 20,8 C 88 % 1013,5 hPa 0,0 l/m 0,1 km/h (0 Bft) E 0,00 h 0,025 mm 0 W/m 18,7 C 20,8 C 0,5 km/h (0 Bft)
31/08/2008 23:00 20,8 C 89 % 1013,4 hPa 0,0 l/m 0,3 km/h (0 Bft) E 0,00 h 0,050 mm 0 W/m 18,9 C 20,8 C 0,8 km/h (0 Bft)
Min-Date _ 25/08/08 27/08/08 25/08/08 - 25/08/08 - - - - 27/08/08 25/08/08 25/08/08
_ Min-Heure 06:11 12:56 04:00 - 00:13 - - - - 12:56 06:11 00:13
Minimum _ 17,3 C 28 % 1011,4 hPa - 0,0 km/h (0 Bft) - - - - 9,8 C 17,3 C 0,0 km/h (0 Bft)
Max-Date _ 28/08/08 31/08/08 26/08/08 31/08/08 27/08/08 - 25/08/08 27/08/08 25/08/08 31/08/08 28/08/08 27/08/08
_ Max-Heure 15:14 04:36 15:00 11:29 14:14 - 07:39 14:00 14:00 14:35 15:14 13:43
Maximum _ 31,3 C 96 % 1018,3 hPa 0,2 l/m 22,5 km/h
S (4 Bft)
- 0,02 h 0,686 mm 886 W/m 21,3 C 31,3 C 27,4 km/h
S-SE (4 Bft)
Moyenne _ 24,0 C 61 % 1014,7 hPa #0,2 l/m 4,4 km/h (1 Bft) E #68:42 h #34,463 mm 382 W/m 15,4 C 24,0 C 6,9 km/h (2 Bft)
Roquefort les pins